Algowood — VCTD — position and weather

sailwx.info

Track history (hours):
 
Tides and Currents Weather Stations Pressure Air Temp Water Temp Dewpoint Dewpoint Depression Visibility Wind Speed Wind Dir Waves Ship Positions

Algowood

Last reported at 2018-Feb-11 05:37 UTC. Time now 2018-Feb-24 15:29 UTC.
Position N 45°33' W 083°23'.
Warning: this ship's position is 13 days out of date.

Length 223 m; draft 7.4 m.

Type: Cargo ship. MMSI: 316001802.

Date/timePositionNaut miles runAvg speedWind from/ knotsBaromVisibWave heightAir tempDewpointWater temp
2018-Feb-11 05:37N 45°33' W 083°23'2 9.4
2018-Feb-11 05:27N 45°34' W 083°25'4 9.8
2018-Feb-11 05:00N 45°36' W 083°31'5 9.2
2018-Feb-11 04:30N 45°38' W 083°37'510.1
2018-Feb-11 04:00N 45°40' W 083°44'510.5
2018-Feb-11 03:30N 45°42' W 083°50'1610.8
2018-Feb-11 01:59N 45°49' W 084°12'511.4
2018-Feb-11 01:30N 45°51' W 084°19'611.5
2018-Feb-11 01:00N 45°51' W 084°27'611.4
2018-Feb-11 00:30N 45°51' W 084°35'3 5.2
2018-Feb-10 23:59N 45°50' W 084°39'1 3.1
2018-Feb-10 23:30N 45°49' W 084°41'0 0.7
2018-Feb-10 23:00N 45°49' W 084°42'3 5.9
2018-Feb-10 22:30N 45°49' W 084°46'3 6.8
2018-Feb-10 22:00N 45°50' W 084°51'2 3.1
2018-Feb-10 21:30N 45°50' W 084°53'0 0.0
2018-Feb-10 21:00N 45°50' W 084°53'0 0.0
2018-Feb-10 20:30N 45°50' W 084°53'0 0.0
2018-Feb-10 20:00N 45°50' W 084°53'0 0.0
2018-Feb-10 19:30N 45°50' W 084°53'1 1.7
2018-Feb-10 19:00N 45°50' W 084°54'2 3.7
2018-Feb-10 18:30N 45°50' W 084°57'0 0.1
2018-Feb-10 18:00N 45°51' W 084°57'2 4.6
2018-Feb-10 17:30N 45°51' W 085°00'0 0.6
2018-Feb-10 17:00N 45°51' W 085°00'0 0.0
2018-Feb-10 16:30N 45°51' W 085°00'0 0.0
2018-Feb-10 16:00N 45°51' W 085°00'0 0.0
2018-Feb-10 15:30N 45°51' W 085°00'0 0.0
2018-Feb-10 15:00N 45°51' W 085°00'0 0.0
2018-Feb-10 14:30N 45°51' W 085°00'0 0.0
2018-Feb-10 14:00N 45°51' W 085°00'0 0.8
2018-Feb-10 13:30N 45°51' W 085°01'0 0.2
2018-Feb-10 13:00N 45°51' W 085°01'1 1.1
2018-Feb-10 12:30N 45°51' W 085°02'0 0.0
2018-Feb-10 12:00N 45°51' W 085°02'0 0.1
2018-Feb-10 11:30N 45°51' W 085°02'1 1.6
2018-Feb-10 11:00N 45°51' W 085°03'0 0.1
2018-Feb-10 10:30N 45°51' W 085°03'0 0.8
2018-Feb-10 10:00N 45°51' W 085°04'0 0.1
2018-Feb-10 09:30N 45°51' W 085°04'2 3.2
2018-Feb-10 09:00N 45°52' W 085°06'2 4.1
2018-Feb-10 08:30N 45°52' W 085°09'1 2.1
2018-Feb-10 08:00N 45°52' W 085°10'0 0.0
2018-Feb-10 07:30N 45°52' W 085°10'0 0.0
2018-Feb-10 07:00N 45°52' W 085°10'0 0.0
2018-Feb-10 06:30N 45°52' W 085°10'0 0.6
2018-Feb-10 06:00N 45°52' W 085°11'0 0.8
2018-Feb-10 05:24N 45°52' W 085°12'0 0.0
2018-Feb-10 04:59N 45°52' W 085°12'0 0.0
2018-Feb-10 04:29N 45°52' W 085°12'0 0.0
2018-Feb-10 04:00N 45°52' W 085°12'0 0.0
2018-Feb-10 03:30N 45°52' W 085°12'0 0.0
2018-Feb-10 03:00N 45°52' W 085°12'0 0.0
2018-Feb-10 02:30N 45°52' W 085°12'0 0.0
2018-Feb-10 02:00N 45°52' W 085°12'1 1.3
2018-Feb-10 01:30N 45°52' W 085°13'1 1.8
2018-Feb-10 01:00N 45°52' W 085°14'1 2.7
2018-Feb-10 00:30N 45°52' W 085°16'1 2.5
2018-Feb-10 00:00N 45°52' W 085°18'1 1.4
2018-Feb-09 23:30N 45°52' W 085°19'0 0.0
2018-Feb-09 23:00N 45°52' W 085°19'0 0.0
2018-Feb-09 22:46N 45°52' W 085°19'  
2018-Feb-06 03:56N 45°43' W 085°60'410.2
2018-Feb-06 03:30N 45°46' W 085°54'5 9.4
2018-Feb-06 03:00N 45°48' W 085°49'4 8.3
2018-Feb-06 02:30N 45°50' W 085°43'4 8.6
2018-Feb-06 02:00N 45°52' W 085°38'3 5.5
2018-Feb-06 01:30N 45°53' W 085°34'4 8.2
2018-Feb-06 01:00N 45°53' W 085°29'4 8.8
2018-Feb-06 00:30N 45°53' W 085°22'2 5.0
2018-Feb-06 00:00N 45°52' W 085°19'0 0.2
2018-Feb-05 23:28N 45°52' W 085°19'1 1.1
2018-Feb-05 23:00N 45°52' W 085°18'2 4.8
2018-Feb-05 22:30N 45°52' W 085°14'2 4.5
2018-Feb-05 22:00N 45°52' W 085°11'2 3.2
2018-Feb-05 21:30N 45°52' W 085°09'0 0.2
2018-Feb-05 21:00N 45°52' W 085°09'0 0.0
2018-Feb-05 20:30N 45°52' W 085°09'1 1.5
2018-Feb-05 20:00N 45°52' W 085°08'3 6.4
2018-Feb-05 19:30N 45°51' W 085°03'2 3.8
2018-Feb-05 19:00N 45°51' W 085°01'2 3.9
2018-Feb-05 18:30N 45°51' W 084°58'3 5.7
2018-Feb-05 18:00N 45°50' W 084°54'1 1.4
2018-Feb-05 17:30N 45°50' W 084°53'1 2.5
2018-Feb-05 17:00N 45°50' W 084°51'3 5.8
2018-Feb-05 16:30N 45°49' W 084°47'3 6.1
2018-Feb-05 16:00N 45°49' W 084°43'3 6.6
2018-Feb-05 15:30N 45°50' W 084°38'3 6.9
2018-Feb-05 15:00N 45°51' W 084°34'4 8.8
2018-Feb-05 14:30N 45°52' W 084°27'5 9.3
2018-Feb-05 13:59N 45°51' W 084°20'5 9.4
2018-Feb-05 13:30N 45°50' W 084°14'17 9.7
2018-Feb-05 11:43N 45°40' W 083°53'210.0
2018-Feb-05 11:30N 45°39' W 083°51'510.0
2018-Feb-05 11:00N 45°36' W 083°45'510.3
2018-Feb-05 10:30N 45°33' W 083°39'510.5
2018-Feb-05 10:00N 45°29' W 083°34'510.6
2018-Feb-05 09:30N 45°26' W 083°28'510.6
2018-Feb-05 09:00N 45°23' W 083°22'  
2018-Feb-02 02:14N 45°26' W 083°22'312.0
2018-Feb-02 02:00N 45°28' W 083°25'611.8
2018-Feb-02 01:30N 45°32' W 083°31'612.0
2018-Feb-02 01:00N 45°35' W 083°38'611.9
2018-Feb-02 00:31N 45°38' W 083°45'612.1
2018-Feb-02 00:00N 45°41' W 083°53'2411.7
2018-Feb-01 22:00N 45°50' W 084°24'510.2
2018-Feb-01 21:30N 45°51' W 084°31'14 6.9
2018-Feb-01 19:30N 45°49' W 084°51'2 3.6
2018-Feb-01 19:00N 45°50' W 084°53'2 4.7
2018-Feb-01 18:30N 45°50' W 084°57'1 1.4
2018-Feb-01 18:00N 45°50' W 084°58'1 1.7
2018-Feb-01 17:30N 45°50' W 084°59'2 4.1
2018-Feb-01 17:00N 45°51' W 085°02'2 4.9
2018-Feb-01 16:30N 45°51' W 085°05'2 4.3
2018-Feb-01 16:00N 45°51' W 085°08'4 8.0
2018-Feb-01 15:30N 45°52' W 085°14'4 8.1
2018-Feb-01 15:00N 45°53' W 085°20'12 8.2
2018-Feb-01 13:30N 45°53' W 085°38'611.4
2018-Feb-01 13:00N 45°52' W 085°46'510.3
2018-Feb-01 12:29N 45°52' W 085°53'4 7.5
2018-Feb-01 11:59N 45°51' W 085°59'  
Track history (hours):
 
Tides and Currents Weather Stations Pressure Air Temp Water Temp Dewpoint Dewpoint Depression Visibility Wind Speed Wind Dir Waves Ship Positions

Algowood

Last reported at 2018-Feb-11 05:37 UTC. Time now 2018-Feb-24 15:29 UTC.
Position N 45°33' W 083°23'.
Warning: this ship's position is 13 days out of date.

Length 223 m; draft 7.4 m.

Type: Cargo ship. MMSI: 316001802.

Date/timePositionNaut miles runAvg speedWind from/ knotsBaromVisibWave heightAir tempDewpointWater temp
2018-Feb-11 05:37N 45°33' W 083°23'2 9.4
2018-Feb-11 05:27N 45°34' W 083°25'4 9.8
2018-Feb-11 05:00N 45°36' W 083°31'5 9.2
2018-Feb-11 04:30N 45°38' W 083°37'510.1
2018-Feb-11 04:00N 45°40' W 083°44'510.5
2018-Feb-11 03:30N 45°42' W 083°50'1610.8
2018-Feb-11 01:59N 45°49' W 084°12'511.4
2018-Feb-11 01:30N 45°51' W 084°19'611.5
2018-Feb-11 01:00N 45°51' W 084°27'611.4
2018-Feb-11 00:30N 45°51' W 084°35'3 5.2
2018-Feb-10 23:59N 45°50' W 084°39'1 3.1
2018-Feb-10 23:30N 45°49' W 084°41'0 0.7
2018-Feb-10 23:00N 45°49' W 084°42'3 5.9
2018-Feb-10 22:30N 45°49' W 084°46'3 6.8
2018-Feb-10 22:00N 45°50' W 084°51'2 3.1
2018-Feb-10 21:30N 45°50' W 084°53'0 0.0
2018-Feb-10 21:00N 45°50' W 084°53'0 0.0
2018-Feb-10 20:30N 45°50' W 084°53'0 0.0
2018-Feb-10 20:00N 45°50' W 084°53'0 0.0
2018-Feb-10 19:30N 45°50' W 084°53'1 1.7
2018-Feb-10 19:00N 45°50' W 084°54'2 3.7
2018-Feb-10 18:30N 45°50' W 084°57'0 0.1
2018-Feb-10 18:00N 45°51' W 084°57'2 4.6
2018-Feb-10 17:30N 45°51' W 085°00'0 0.6
2018-Feb-10 17:00N 45°51' W 085°00'0 0.0
2018-Feb-10 16:30N 45°51' W 085°00'0 0.0
2018-Feb-10 16:00N 45°51' W 085°00'0 0.0
2018-Feb-10 15:30N 45°51' W 085°00'0 0.0
2018-Feb-10 15:00N 45°51' W 085°00'0 0.0
2018-Feb-10 14:30N 45°51' W 085°00'0 0.0
2018-Feb-10 14:00N 45°51' W 085°00'0 0.8
2018-Feb-10 13:30N 45°51' W 085°01'0 0.2
2018-Feb-10 13:00N 45°51' W 085°01'1 1.1
2018-Feb-10 12:30N 45°51' W 085°02'0 0.0
2018-Feb-10 12:00N 45°51' W 085°02'0 0.1
2018-Feb-10 11:30N 45°51' W 085°02'1 1.6
2018-Feb-10 11:00N 45°51' W 085°03'0 0.1
2018-Feb-10 10:30N 45°51' W 085°03'0 0.8
2018-Feb-10 10:00N 45°51' W 085°04'0 0.1
2018-Feb-10 09:30N 45°51' W 085°04'2 3.2
2018-Feb-10 09:00N 45°52' W 085°06'2 4.1
2018-Feb-10 08:30N 45°52' W 085°09'1 2.1
2018-Feb-10 08:00N 45°52' W 085°10'0 0.0
2018-Feb-10 07:30N 45°52' W 085°10'0 0.0
2018-Feb-10 07:00N 45°52' W 085°10'0 0.0
2018-Feb-10 06:30N 45°52' W 085°10'0 0.6
2018-Feb-10 06:00N 45°52' W 085°11'0 0.8
2018-Feb-10 05:24N 45°52' W 085°12'0 0.0
2018-Feb-10 04:59N 45°52' W 085°12'0 0.0
2018-Feb-10 04:29N 45°52' W 085°12'0 0.0
2018-Feb-10 04:00N 45°52' W 085°12'0 0.0
2018-Feb-10 03:30N 45°52' W 085°12'0 0.0
2018-Feb-10 03:00N 45°52' W 085°12'0 0.0
2018-Feb-10 02:30N 45°52' W 085°12'0 0.0
2018-Feb-10 02:00N 45°52' W 085°12'1 1.3
2018-Feb-10 01:30N 45°52' W 085°13'1 1.8
2018-Feb-10 01:00N 45°52' W 085°14'1 2.7
2018-Feb-10 00:30N 45°52' W 085°16'1 2.5
2018-Feb-10 00:00N 45°52' W 085°18'1 1.4
2018-Feb-09 23:30N 45°52' W 085°19'0 0.0
2018-Feb-09 23:00N 45°52' W 085°19'0 0.0
2018-Feb-09 22:46N 45°52' W 085°19'  
2018-Feb-06 03:56N 45°43' W 085°60'410.2
2018-Feb-06 03:30N 45°46' W 085°54'5 9.4
2018-Feb-06 03:00N 45°48' W 085°49'4 8.3
2018-Feb-06 02:30N 45°50' W 085°43'4 8.6
2018-Feb-06 02:00N 45°52' W 085°38'3 5.5
2018-Feb-06 01:30N 45°53' W 085°34'4 8.2
2018-Feb-06 01:00N 45°53' W 085°29'4 8.8
2018-Feb-06 00:30N 45°53' W 085°22'2 5.0
2018-Feb-06 00:00N 45°52' W 085°19'0 0.2
2018-Feb-05 23:28N 45°52' W 085°19'1 1.1
2018-Feb-05 23:00N 45°52' W 085°18'2 4.8
2018-Feb-05 22:30N 45°52' W 085°14'2 4.5
2018-Feb-05 22:00N 45°52' W 085°11'2 3.2
2018-Feb-05 21:30N 45°52' W 085°09'0 0.2
2018-Feb-05 21:00N 45°52' W 085°09'0 0.0
2018-Feb-05 20:30N 45°52' W 085°09'1 1.5
2018-Feb-05 20:00N 45°52' W 085°08'3 6.4
2018-Feb-05 19:30N 45°51' W 085°03'2 3.8
2018-Feb-05 19:00N 45°51' W 085°01'2 3.9
2018-Feb-05 18:30N 45°51' W 084°58'3 5.7
2018-Feb-05 18:00N 45°50' W 084°54'1 1.4
2018-Feb-05 17:30N 45°50' W 084°53'1 2.5
2018-Feb-05 17:00N 45°50' W 084°51'3 5.8
2018-Feb-05 16:30N 45°49' W 084°47'3 6.1
2018-Feb-05 16:00N 45°49' W 084°43'3 6.6
2018-Feb-05 15:30N 45°50' W 084°38'3 6.9
2018-Feb-05 15:00N 45°51' W 084°34'4 8.8
2018-Feb-05 14:30N 45°52' W 084°27'5 9.3
2018-Feb-05 13:59N 45°51' W 084°20'5 9.4
2018-Feb-05 13:30N 45°50' W 084°14'17 9.7
2018-Feb-05 11:43N 45°40' W 083°53'210.0
2018-Feb-05 11:30N 45°39' W 083°51'510.0
2018-Feb-05 11:00N 45°36' W 083°45'510.3
2018-Feb-05 10:30N 45°33' W 083°39'510.5
2018-Feb-05 10:00N 45°29' W 083°34'510.6
2018-Feb-05 09:30N 45°26' W 083°28'510.6
2018-Feb-05 09:00N 45°23' W 083°22'  
2018-Feb-02 02:14N 45°26' W 083°22'312.0
2018-Feb-02 02:00N 45°28' W 083°25'611.8
2018-Feb-02 01:30N 45°32' W 083°31'612.0
2018-Feb-02 01:00N 45°35' W 083°38'611.9
2018-Feb-02 00:31N 45°38' W 083°45'612.1
2018-Feb-02 00:00N 45°41' W 083°53'2411.7
2018-Feb-01 22:00N 45°50' W 084°24'510.2
2018-Feb-01 21:30N 45°51' W 084°31'14 6.9
2018-Feb-01 19:30N 45°49' W 084°51'2 3.6
2018-Feb-01 19:00N 45°50' W 084°53'2 4.7
2018-Feb-01 18:30N 45°50' W 084°57'1 1.4
2018-Feb-01 18:00N 45°50' W 084°58'1 1.7
2018-Feb-01 17:30N 45°50' W 084°59'2 4.1
2018-Feb-01 17:00N 45°51' W 085°02'2 4.9
2018-Feb-01 16:30N 45°51' W 085°05'2 4.3
2018-Feb-01 16:00N 45°51' W 085°08'4 8.0
2018-Feb-01 15:30N 45°52' W 085°14'4 8.1
2018-Feb-01 15:00N 45°53' W 085°20'12 8.2
2018-Feb-01 13:30N 45°53' W 085°38'611.4
2018-Feb-01 13:00N 45°52' W 085°46'510.3
2018-Feb-01 12:29N 45°52' W 085°53'4 7.5
2018-Feb-01 11:59N 45°51' W 085°59'  

Dump ship's entire track history